createdAt,value
2018-08-04T00:01:59.816Z,95416.73
2018-08-04T00:04:29.621Z,95412.98
2018-08-04T00:07:00.078Z,95413.62
2018-08-04T00:09:30.128Z,95411.81
2018-08-04T00:12:00.968Z,95407.86
2018-08-04T00:14:31.361Z,95407.71
2018-08-04T00:17:01.131Z,95414.23
2018-08-04T00:19:31.379Z,95410.28
2018-08-04T00:22:02.313Z,95409.00
2018-08-04T00:24:32.648Z,95406.56
2018-08-04T00:27:04.283Z,95406.13
2018-08-04T00:29:34.507Z,95396.55
2018-08-04T00:32:04.551Z,95401.10
2018-08-04T00:34:34.962Z,95399.52
2018-08-04T00:37:06.210Z,95401.18
2018-08-04T00:39:36.927Z,95397.39
2018-08-04T00:42:06.985Z,95395.00
2018-08-04T00:44:36.718Z,95395.05
2018-08-04T00:47:07.475Z,95395.42
2018-08-04T00:49:37.006Z,95392.99
2018-08-04T00:52:08.212Z,95389.55
2018-08-04T00:54:37.371Z,95389.34
2018-08-04T00:57:06.362Z,95387.92
2018-08-04T00:59:35.335Z,95383.91
2018-08-04T01:02:04.312Z,95389.63
2018-08-04T01:04:33.383Z,95384.02
2018-08-04T01:07:02.352Z,95381.77
2018-08-04T01:09:31.310Z,95379.59
2018-08-04T01:12:00.326Z,95374.45
2018-08-04T01:14:29.303Z,95373.17
2018-08-04T01:16:58.324Z,95366.97
2018-08-04T01:19:27.299Z,95368.73
2018-08-04T01:21:56.267Z,95366.64
2018-08-04T01:24:25.291Z,95366.22
2018-08-04T01:26:54.232Z,95366.16
2018-08-04T01:29:23.195Z,95366.27
2018-08-04T01:31:52.155Z,95365.13
2018-08-04T01:34:21.179Z,95354.87
2018-08-04T01:36:50.178Z,95358.23
2018-08-04T01:39:19.153Z,95356.59
2018-08-04T01:41:48.167Z,95353.84
2018-08-04T01:44:17.164Z,95354.89
2018-08-04T01:46:46.165Z,95354.10
2018-08-04T01:49:15.187Z,95349.84
2018-08-04T01:51:44.263Z,95350.06
2018-08-04T01:54:13.243Z,95351.63
2018-08-04T01:56:42.183Z,95348.77
2018-08-04T01:59:11.234Z,95346.69
2018-08-04T02:01:40.173Z,95344.70
2018-08-04T02:04:09.194Z,95341.58
2018-08-04T02:06:38.200Z,95346.99
2018-08-04T02:09:08.214Z,95350.88
2018-08-04T02:11:37.194Z,95344.75
2018-08-04T02:14:06.247Z,95345.03
2018-08-04T02:16:35.323Z,95346.63
2018-08-04T02:19:04.300Z,95343.95
2018-08-04T02:21:33.262Z,95342.76
2018-08-04T02:24:02.243Z,95339.42
2018-08-04T02:26:31.279Z,95338.38
2018-08-04T02:29:00.231Z,95333.36
2018-08-04T02:31:29.239Z,95333.12
2018-08-04T02:33:58.248Z,95335.97
2018-08-04T02:36:27.232Z,95330.28
2018-08-04T02:38:56.199Z,95324.08
2018-08-04T02:41:25.314Z,95323.02
2018-08-04T02:43:54.311Z,95324.63
2018-08-04T02:46:23.337Z,95327.17
2018-08-04T02:48:52.326Z,95321.27
2018-08-04T02:51:21.358Z,95322.06
2018-08-04T02:53:50.336Z,95317.20
2018-08-04T02:56:19.307Z,95322.91
2018-08-04T02:58:48.256Z,95324.23
2018-08-04T03:01:17.383Z,95315.75
2018-08-04T03:03:46.360Z,95323.47
2018-08-04T03:06:15.367Z,95323.94
2018-08-04T03:08:44.339Z,95327.54
2018-08-04T03:11:13.332Z,95334.84
2018-08-04T03:13:42.317Z,95334.84
2018-08-04T03:16:11.309Z,95332.52
2018-08-04T03:18:41.306Z,95337.77
2018-08-04T03:21:10.252Z,95344.30
2018-08-04T03:23:39.222Z,95335.91
2018-08-04T03:26:08.193Z,95328.02
2018-08-04T03:28:37.199Z,95334.13
2018-08-04T03:31:06.178Z,95333.55
2018-08-04T03:33:35.163Z,95335.40
2018-08-04T03:36:04.205Z,95334.68
2018-08-04T03:38:33.127Z,95334.02
2018-08-04T03:41:02.179Z,95341.06
2018-08-04T03:43:31.147Z,95342.81
2018-08-04T03:46:00.108Z,95339.67
2018-08-04T03:48:29.075Z,95335.14
2018-08-04T03:50:58.052Z,95332.72
2018-08-04T03:53:27.131Z,95338.20
2018-08-04T03:55:56.100Z,95341.10
2018-08-04T03:58:25.063Z,95344.10
2018-08-04T04:00:54.052Z,95348.92
2018-08-04T04:03:23.054Z,95348.17
2018-08-04T04:05:52.061Z,95347.95
2018-08-04T04:08:21.019Z,95350.66
2018-08-04T04:10:49.970Z,95346.14
2018-08-04T04:13:18.943Z,95341.59
2018-08-04T04:15:47.960Z,95341.27
2018-08-04T04:18:16.987Z,95343.34
2018-08-04T04:20:45.947Z,95346.19
2018-08-04T04:23:15.030Z,95344.73
2018-08-04T04:25:44.000Z,95345.95
2018-08-04T04:28:13.000Z,95347.45
2018-08-04T04:30:42.008Z,95344.93
2018-08-04T04:33:10.966Z,95349.83
2018-08-04T04:35:39.952Z,95340.14
2018-08-04T04:38:08.895Z,95340.23
2018-08-04T04:40:37.891Z,95335.91
2018-08-04T04:43:06.898Z,95335.34
2018-08-04T04:45:35.891Z,95342.95
2018-08-04T04:48:05.031Z,95341.81
2018-08-04T04:50:34.140Z,95340.75
2018-08-04T04:53:03.107Z,95342.16
2018-08-04T04:55:32.230Z,95337.33
2018-08-04T04:58:01.176Z,95335.50
2018-08-04T05:00:30.271Z,95338.30
2018-08-04T05:02:59.472Z,95338.36
2018-08-04T05:05:28.523Z,95335.79
2018-08-04T05:07:57.612Z,95342.05
2018-08-04T05:10:26.809Z,95339.32
2018-08-04T05:12:55.842Z,95342.22
2018-08-04T05:15:25.006Z,95344.63
2018-08-04T05:17:54.060Z,95348.05
2018-08-04T05:20:23.174Z,95352.53
2018-08-04T05:22:52.217Z,95355.23
2018-08-04T05:25:21.236Z,95358.19
2018-08-04T05:27:50.253Z,95352.28
2018-08-04T05:30:19.243Z,95355.57
2018-08-04T05:32:48.291Z,95356.80
2018-08-04T05:35:17.559Z,95363.71
2018-08-04T05:37:47.335Z,95366.20
2018-08-04T05:40:16.351Z,95379.44
2018-08-04T05:42:45.299Z,95384.41
2018-08-04T05:45:14.372Z,95385.05
2018-08-04T05:47:43.386Z,95379.10
2018-08-04T05:50:12.521Z,95378.36
2018-08-04T05:52:41.498Z,95379.67
2018-08-04T05:55:10.584Z,95383.66
2018-08-04T05:57:39.561Z,95389.91
2018-08-04T06:00:09.206Z,95382.11
2018-08-04T06:02:38.374Z,95381.22
2018-08-04T06:05:07.917Z,95381.22
2018-08-04T06:07:38.014Z,95376.86
2018-08-04T06:10:07.030Z,95378.94
2018-08-04T06:12:36.170Z,95377.06
2018-08-04T06:15:05.376Z,95384.43
2018-08-04T06:17:34.411Z,95375.46
2018-08-04T06:20:03.443Z,95376.52
2018-08-04T06:22:32.503Z,95375.18
2018-08-04T06:25:01.547Z,95367.83
2018-08-04T06:27:30.616Z,95372.24
2018-08-04T06:29:59.628Z,95361.87
2018-08-04T06:32:28.639Z,95370.89
2018-08-04T06:34:57.703Z,95368.80
2018-08-04T06:37:26.716Z,95371.72
2018-08-04T06:39:56.248Z,95379.50
2018-08-04T06:42:25.641Z,95381.07
2018-08-04T06:44:54.622Z,95381.28
2018-08-04T06:47:23.658Z,95385.30
2018-08-04T06:49:52.639Z,95374.14
2018-08-04T06:52:21.716Z,95384.58
2018-08-04T06:54:50.743Z,95381.21
2018-08-04T06:57:19.778Z,95377.42
2018-08-04T06:59:49.839Z,95377.94
2018-08-04T07:02:18.837Z,95377.05
2018-08-04T07:04:47.874Z,95376.66
2018-08-04T07:07:16.876Z,95379.30
2018-08-04T07:09:45.849Z,95375.45
2018-08-04T07:12:14.905Z,95377.20
2018-08-04T07:14:43.932Z,95376.88
2018-08-04T07:17:12.960Z,95380.73
2018-08-04T07:19:41.983Z,95372.07
2018-08-04T07:22:10.967Z,95373.10
2018-08-04T07:24:40.115Z,95381.94
2018-08-04T07:27:09.319Z,95381.78
2018-08-04T07:29:38.324Z,95385.22
2018-08-04T07:32:07.339Z,95380.93
2018-08-04T07:34:36.351Z,95377.96
2018-08-04T07:37:05.811Z,95383.63
2018-08-04T07:39:34.856Z,95383.67
2018-08-04T07:42:03.844Z,95383.84
2018-08-04T07:44:32.876Z,95390.47
2018-08-04T07:47:01.883Z,95381.95
2018-08-04T07:49:30.950Z,95385.25
2018-08-04T07:52:00.108Z,95389.98
2018-08-04T07:54:29.145Z,95391.83
2018-08-04T07:56:58.209Z,95385.84
2018-08-04T07:59:27.336Z,95389.95
2018-08-04T08:01:56.315Z,95383.95
2018-08-04T08:04:25.628Z,95386.45
2018-08-04T08:06:54.682Z,95383.59
2018-08-04T08:09:23.824Z,95385.06
2018-08-04T08:11:52.923Z,95380.29
2018-08-04T08:14:22.040Z,95380.89
2018-08-04T08:16:51.100Z,95378.74
2018-08-04T08:19:20.130Z,95381.17
2018-08-04T08:21:49.188Z,95384.06
2018-08-04T08:24:18.291Z,95380.20
2018-08-04T08:26:47.400Z,95382.55
2018-08-04T08:29:16.477Z,95389.81
2018-08-04T08:31:45.488Z,95389.34
2018-08-04T08:34:14.547Z,95398.56
2018-08-04T08:36:43.567Z,95392.94
2018-08-04T08:39:12.686Z,95402.59
2018-08-04T08:41:41.739Z,95400.16
2018-08-04T08:44:10.906Z,95398.27
2018-08-04T08:49:15.050Z,95400.78
2018-08-04T08:51:44.369Z,95395.23
2018-08-04T08:54:14.649Z,95400.59
2018-08-04T08:56:43.704Z,95398.64
2018-08-04T08:59:13.827Z,95402.27
2018-08-04T09:01:43.055Z,95402.63
2018-08-04T09:04:12.134Z,95403.28
2018-08-04T09:06:41.210Z,95405.77
2018-08-04T09:09:10.955Z,95414.17
2018-08-04T09:11:40.017Z,95418.25
2018-08-04T09:14:09.074Z,95420.02
2018-08-04T09:16:38.230Z,95422.05
2018-08-04T09:19:07.416Z,95421.97
2018-08-04T09:21:36.483Z,95423.61
2018-08-04T09:24:05.599Z,95434.08
2018-08-04T09:26:34.637Z,95427.37
2018-08-04T09:29:03.735Z,95425.12
2018-08-04T09:31:32.807Z,95431.21
2018-08-04T09:34:01.861Z,95427.41
2018-08-04T09:36:30.916Z,95428.72
2018-08-04T09:38:59.992Z,95434.61
2018-08-04T09:41:29.090Z,95427.98
2018-08-04T09:43:58.082Z,95426.80
2018-08-04T09:46:27.129Z,95427.84
2018-08-04T09:48:56.151Z,95427.75
2018-08-04T09:51:25.176Z,95424.23
2018-08-04T09:53:54.154Z,95420.30
2018-08-04T09:56:23.209Z,95410.77
2018-08-04T09:58:52.259Z,95411.86
2018-08-04T10:01:26.468Z,95410.20
2018-08-04T10:03:55.555Z,95410.98
2018-08-04T10:06:24.574Z,95408.80
2018-08-04T10:08:53.647Z,95412.25
2018-08-04T10:11:22.629Z,95412.47
2018-08-04T10:13:51.597Z,95406.93
2018-08-04T10:16:20.676Z,95417.08
2018-08-04T10:18:49.756Z,95417.77
2018-08-04T10:21:18.831Z,95413.00
2018-08-04T10:23:47.929Z,95408.03
2018-08-04T10:26:16.887Z,95406.97
2018-08-04T10:28:46.048Z,95409.20
2018-08-04T10:31:15.226Z,95404.32
2018-08-04T10:33:44.240Z,95406.77
2018-08-04T10:36:13.331Z,95405.66
2018-08-04T10:38:42.458Z,95400.30
2018-08-04T10:41:11.460Z,95401.27
2018-08-04T10:43:40.487Z,95401.97
2018-08-04T10:46:09.542Z,95398.36
2018-08-04T10:48:38.570Z,95399.48
2018-08-04T10:51:07.703Z,95397.42
2018-08-04T10:53:36.748Z,95399.59
2018-08-04T10:56:05.907Z,95399.32
2018-08-04T10:58:35.009Z,95404.17
2018-08-04T11:01:04.112Z,95406.25
2018-08-04T11:03:33.126Z,95403.05
2018-08-04T11:06:02.225Z,95409.70
2018-08-04T11:08:31.260Z,95407.17
2018-08-04T11:11:00.411Z,95409.88
2018-08-04T11:13:29.466Z,95404.09
2018-08-04T11:15:58.785Z,95404.18
2018-08-04T11:18:27.795Z,95407.70
2018-08-04T11:20:56.890Z,95402.67
2018-08-04T11:23:25.989Z,95408.00
2018-08-04T11:25:55.090Z,95406.83
2018-08-04T11:28:24.160Z,95410.80
2018-08-04T11:30:53.209Z,95400.63
2018-08-04T11:33:22.443Z,95404.11
2018-08-04T11:35:51.576Z,95409.77
2018-08-04T11:38:20.675Z,95401.46
2018-08-04T11:40:49.795Z,95405.00
2018-08-04T11:43:18.844Z,95400.39
2018-08-04T11:45:47.926Z,95401.14
2018-08-04T11:48:17.009Z,95394.50
2018-08-04T11:50:46.102Z,95399.88
2018-08-04T11:53:15.195Z,95398.33
2018-08-04T11:55:44.236Z,95398.61
2018-08-04T11:58:13.302Z,95390.14
2018-08-04T12:00:42.366Z,95392.02
2018-08-04T12:03:11.451Z,95398.05
2018-08-04T12:05:40.618Z,95397.27
2018-08-04T12:08:09.630Z,95390.27
2018-08-04T12:10:38.681Z,95388.67
2018-08-04T12:13:07.737Z,95385.96
2018-08-04T12:15:36.767Z,95391.11
2018-08-04T12:18:05.936Z,95389.39
2018-08-04T12:20:34.931Z,95382.72
2018-08-04T12:23:04.025Z,95384.36
2018-08-04T12:25:33.138Z,95386.05
2018-08-04T12:28:02.131Z,95387.06
2018-08-04T12:30:31.203Z,95385.72
2018-08-04T12:33:01.198Z,95375.41
2018-08-04T12:35:30.336Z,95377.56
2018-08-04T12:37:59.395Z,95374.42
2018-08-04T12:40:28.495Z,95373.51
2018-08-04T12:42:57.519Z,95372.53
2018-08-04T12:45:26.643Z,95375.96
2018-08-04T12:47:55.821Z,95369.98
2018-08-04T12:50:24.826Z,95371.12
2018-08-04T12:52:53.847Z,95370.39
2018-08-04T12:55:22.864Z,95370.30
2018-08-04T12:57:51.886Z,95369.41
2018-08-04T13:00:21.008Z,95371.42
2018-08-04T13:02:50.456Z,95373.45
2018-08-04T13:05:19.489Z,95359.19
2018-08-04T13:07:48.468Z,95358.92
2018-08-04T13:10:17.459Z,95368.37
2018-08-04T13:12:46.463Z,95361.78
2018-08-04T13:15:15.414Z,95365.27
2018-08-04T13:17:44.432Z,95355.21
2018-08-04T13:20:13.372Z,95361.02
2018-08-04T13:22:42.384Z,95352.41
2018-08-04T13:25:11.647Z,95353.73
2018-08-04T13:27:40.705Z,95356.55
2018-08-04T13:30:09.753Z,95348.72
2018-08-04T13:32:38.932Z,95355.17
2018-08-04T13:35:08.400Z,95346.77
2018-08-04T13:37:37.518Z,95349.95
2018-08-04T13:40:06.656Z,95345.84
2018-08-04T13:42:35.793Z,95342.11
2018-08-04T13:45:05.354Z,95346.94
2018-08-04T13:47:34.360Z,95349.52
2018-08-04T13:50:03.440Z,95352.19
2018-08-04T13:52:32.553Z,95341.72
2018-08-04T13:55:01.519Z,95346.23
2018-08-04T13:57:30.608Z,95338.36
2018-08-04T13:59:59.651Z,95336.93
2018-08-04T14:02:28.774Z,95341.34
2018-08-04T14:04:57.863Z,95345.09
2018-08-04T14:07:26.959Z,95337.66
2018-08-04T14:09:56.051Z,95341.00
2018-08-04T14:12:25.097Z,95338.39
2018-08-04T14:14:54.183Z,95346.92
2018-08-04T14:17:23.333Z,95336.66
2018-08-04T14:19:52.362Z,95337.05
2018-08-04T14:22:21.482Z,95337.55
2018-08-04T14:24:50.624Z,95341.12
2018-08-04T14:27:19.695Z,95341.84
2018-08-04T14:29:48.700Z,95340.19
2018-08-04T14:32:17.759Z,95339.91
2018-08-04T14:34:46.823Z,95335.00
2018-08-04T14:37:15.866Z,95333.36
2018-08-04T14:39:44.974Z,95334.55
2018-08-04T14:42:14.111Z,95328.09
2018-08-04T14:44:43.175Z,95335.55
2018-08-04T14:47:12.210Z,95344.16
2018-08-04T14:49:41.315Z,95329.48
2018-08-04T14:52:10.445Z,95338.99
2018-08-04T14:54:39.456Z,95338.47
2018-08-04T14:57:08.475Z,95338.70
2018-08-04T14:59:37.491Z,95326.88
2018-08-04T15:02:07.259Z,95328.67
2018-08-04T15:04:36.394Z,95336.31
2018-08-04T15:07:05.587Z,95331.17
2018-08-04T15:09:34.595Z,95329.96
2018-08-04T15:12:03.648Z,95328.25
2018-08-04T15:14:32.757Z,95344.81
2018-08-04T15:17:01.880Z,95331.20
2018-08-04T15:19:30.942Z,95335.64
2018-08-04T15:22:00.063Z,95332.94
2018-08-04T15:24:29.115Z,95332.65
2018-08-04T15:26:58.167Z,95332.38
2018-08-04T15:29:27.289Z,95335.64
2018-08-04T15:31:56.694Z,95328.87
2018-08-04T15:34:25.731Z,95330.69
2018-08-04T15:36:54.836Z,95327.66
2018-08-04T15:39:23.916Z,95324.65
2018-08-04T15:41:52.926Z,95332.36
2018-08-04T15:44:22.163Z,95325.60
2018-08-04T15:46:51.536Z,95328.88
2018-08-04T15:49:20.867Z,95328.30
2018-08-04T15:51:50.191Z,95328.14
2018-08-04T15:54:19.542Z,95335.27
2018-08-04T15:56:49.215Z,95331.58
2018-08-04T15:59:18.341Z,95329.43
2018-08-04T16:01:47.561Z,95328.89
2018-08-04T16:04:16.626Z,95330.05
2018-08-04T16:06:45.886Z,95334.84
2018-08-04T16:09:15.125Z,95328.36
2018-08-04T16:11:44.209Z,95329.89
2018-08-04T16:14:13.570Z,95325.84
2018-08-04T16:16:42.803Z,95326.05
2018-08-04T16:19:11.832Z,95327.13
2018-08-04T16:21:40.813Z,95327.56
2018-08-04T16:24:09.787Z,95322.57
2018-08-04T16:26:38.799Z,95333.72
2018-08-04T16:29:07.827Z,95325.98
2018-08-04T16:31:36.924Z,95326.86
2018-08-04T16:34:05.984Z,95326.11
2018-08-04T16:36:35.023Z,95329.32
2018-08-04T16:39:06.172Z,95323.96
2018-08-04T16:41:36.124Z,95325.81
2018-08-04T16:44:05.128Z,95329.48
2018-08-04T16:46:35.159Z,95332.94
2018-08-04T16:49:04.194Z,95321.50
2018-08-04T16:51:33.236Z,95333.55
2018-08-04T16:54:02.358Z,95329.36
2018-08-04T16:56:31.428Z,95326.78
2018-08-04T16:59:00.391Z,95330.30
2018-08-04T17:01:29.391Z,95331.01
2018-08-04T17:03:58.454Z,95329.05
2018-08-04T17:06:27.517Z,95332.36
2018-08-04T17:08:56.876Z,95327.44
2018-08-04T17:11:25.955Z,95341.75
2018-08-04T17:13:55.193Z,95335.03
2018-08-04T17:16:24.632Z,95339.48
2018-08-04T17:18:53.842Z,95346.70
2018-08-04T17:21:23.059Z,95344.84
2018-08-04T17:23:52.091Z,95344.28
2018-08-04T17:26:21.305Z,95346.05
2018-08-04T17:28:50.731Z,95348.76
2018-08-04T17:31:19.723Z,95351.87
2018-08-04T17:33:48.751Z,95352.52
2018-08-04T17:36:18.130Z,95353.49
2018-08-04T17:38:47.202Z,95351.55
2018-08-04T17:41:16.555Z,95347.25
2018-08-04T17:43:45.634Z,95348.17
2018-08-04T17:46:14.802Z,95357.73
2018-08-04T17:48:44.164Z,95361.20
2018-08-04T17:51:13.558Z,95353.17
2018-08-04T17:53:42.830Z,95358.30
2018-08-04T17:56:11.860Z,95355.95
2018-08-04T17:58:41.131Z,95355.10
2018-08-04T18:01:10.238Z,95360.70
2018-08-04T18:03:39.421Z,95356.66
2018-08-04T18:06:08.440Z,95359.50
2018-08-04T18:08:37.419Z,95354.66
2018-08-04T18:11:06.468Z,95361.66
2018-08-04T18:13:35.538Z,95364.15
2018-08-04T18:16:06.879Z,95367.87
2018-08-04T18:18:36.243Z,95369.23
2018-08-04T18:21:05.497Z,95374.34
2018-08-04T18:23:34.623Z,95377.51
2018-08-04T18:26:03.900Z,95375.75
2018-08-04T18:28:33.400Z,95382.94
2018-08-04T18:31:02.458Z,95382.80
2018-08-04T18:33:31.416Z,95387.09
2018-08-04T18:36:00.381Z,95390.99
2018-08-04T18:38:29.402Z,95392.91
2018-08-04T18:40:58.722Z,95397.84
2018-08-04T18:43:27.910Z,95401.16
2018-08-04T18:45:57.455Z,95393.50
2018-08-04T18:48:26.684Z,95391.73
2018-08-04T18:50:55.849Z,95395.63
2018-08-04T18:53:25.123Z,95393.16
2018-08-04T18:55:54.395Z,95397.47
2018-08-04T18:58:23.707Z,95403.63
2018-08-04T19:00:53.080Z,95404.80
2018-08-04T19:03:22.571Z,95403.95
2018-08-04T19:05:52.372Z,95411.44
2018-08-04T19:08:21.830Z,95415.78
2018-08-04T19:10:51.237Z,95413.89
2018-08-04T19:13:20.407Z,95415.98
2018-08-04T19:15:49.468Z,95414.70
2018-08-04T19:18:18.786Z,95402.41
2018-08-04T19:20:47.928Z,95409.14
2018-08-04T19:23:16.987Z,95406.59
2018-08-04T19:25:46.447Z,95411.75
2018-08-04T19:28:15.771Z,95414.80
2018-08-04T19:30:45.197Z,95411.48
2018-08-04T19:33:14.318Z,95417.53
2018-08-04T19:35:43.605Z,95416.48
2018-08-04T19:38:12.966Z,95421.03
2018-08-04T19:40:42.268Z,95415.00
2018-08-04T19:43:11.464Z,95420.70
2018-08-04T19:45:40.500Z,95423.93
2018-08-04T19:48:09.554Z,95423.31
2018-08-04T19:50:38.475Z,95421.39
2018-08-04T19:53:07.475Z,95418.91
2018-08-04T19:55:36.485Z,95432.23
2018-08-04T19:58:05.487Z,95428.43
2018-08-04T20:00:34.523Z,95431.52
2018-08-04T20:03:03.534Z,95431.08
2018-08-04T20:05:32.481Z,95434.92
2018-08-04T20:08:01.479Z,95439.30
2018-08-04T20:10:30.459Z,95436.59
2018-08-04T20:12:59.479Z,95446.05
2018-08-04T20:15:28.430Z,95444.16
2018-08-04T20:17:57.459Z,95445.45
2018-08-04T20:20:26.471Z,95448.55
2018-08-04T20:22:55.471Z,95445.09
2018-08-04T20:25:24.537Z,95458.77
2018-08-04T20:27:53.491Z,95454.44
2018-08-04T20:30:22.448Z,95454.54
2018-08-04T20:32:51.442Z,95458.87
2018-08-04T20:35:20.408Z,95455.79
2018-08-04T20:37:49.416Z,95455.00
2018-08-04T20:40:18.441Z,95455.16
2018-08-04T20:42:47.480Z,95453.28
2018-08-04T20:45:16.447Z,95455.37
2018-08-04T20:47:45.378Z,95461.73
2018-08-04T20:50:14.371Z,95462.99
2018-08-04T20:52:43.353Z,95461.02
2018-08-04T20:55:12.370Z,95463.81
2018-08-04T20:57:41.362Z,95467.16
2018-08-04T21:00:10.317Z,95466.98
2018-08-04T21:02:39.324Z,95467.33
2018-08-04T21:05:08.303Z,95466.80
2018-08-04T21:07:37.276Z,95472.61
2018-08-04T21:10:06.395Z,95466.69
2018-08-04T21:12:36.355Z,95468.89
2018-08-04T21:15:05.371Z,95468.59
2018-08-04T21:17:34.326Z,95472.32
2018-08-04T21:20:03.380Z,95475.20
2018-08-04T21:22:32.326Z,95478.61
2018-08-04T21:25:01.298Z,95478.83
2018-08-04T21:27:30.278Z,95482.05
2018-08-04T21:29:59.268Z,95476.72
2018-08-04T21:32:28.278Z,95483.71
2018-08-04T21:34:57.284Z,95479.94
2018-08-04T21:37:26.306Z,95488.69
2018-08-04T21:39:55.266Z,95484.91
2018-08-04T21:42:24.286Z,95487.80
2018-08-04T21:44:53.262Z,95488.11
2018-08-04T21:47:22.222Z,95482.38
2018-08-04T21:49:51.210Z,95486.56
2018-08-04T21:52:20.201Z,95482.50
2018-08-04T21:54:49.129Z,95491.91
2018-08-04T21:57:18.140Z,95491.00
2018-08-04T21:59:47.146Z,95490.21
2018-08-04T22:02:16.199Z,95502.28
2018-08-04T22:04:45.169Z,95501.41
2018-08-04T22:07:50.860Z,95504.28
2018-08-04T22:10:19.812Z,95500.11
2018-08-04T22:12:48.850Z,95496.42
2018-08-04T22:15:17.770Z,95498.48
2018-08-04T22:17:46.728Z,95495.31
2018-08-04T22:20:17.694Z,95494.03
2018-08-04T22:22:46.671Z,95495.19
2018-08-04T22:25:16.879Z,95491.98
2018-08-04T22:27:45.914Z,95492.98
2018-08-04T22:30:16.075Z,95489.08
2018-08-04T22:32:45.522Z,95491.56
2018-08-04T22:35:14.524Z,95488.22
2018-08-04T22:37:43.634Z,95494.50
2018-08-04T22:40:13.614Z,95495.41
2018-08-04T22:42:42.882Z,95499.18
2018-08-04T22:45:53.775Z,95503.48
2018-08-04T22:48:23.101Z,95506.69
2018-08-04T22:50:52.111Z,95502.98
2018-08-04T22:53:21.054Z,95503.27
2018-08-04T22:55:49.998Z,95506.64
2018-08-04T22:58:18.959Z,95507.41
2018-08-04T23:00:47.913Z,95507.41
2018-08-04T23:03:16.981Z,95506.27
2018-08-04T23:05:45.935Z,95503.14
2018-08-04T23:08:15.048Z,95505.08
2018-08-04T23:10:44.433Z,95507.70
2018-08-04T23:13:13.729Z,95513.84
2018-08-04T23:15:42.719Z,95506.70
2018-08-04T23:18:11.743Z,95509.05
2018-08-04T23:20:40.730Z,95506.56
2018-08-04T23:23:10.736Z,95499.73
2018-08-04T23:25:39.681Z,95498.63
2018-08-04T23:28:08.931Z,95503.50
2018-08-04T23:30:37.892Z,95502.21
2018-08-04T23:33:06.838Z,95501.19
2018-08-04T23:35:35.807Z,95510.04
2018-08-04T23:38:04.770Z,95511.09
2018-08-04T23:40:33.780Z,95506.48
2018-08-04T23:43:02.776Z,95509.05
2018-08-04T23:45:31.753Z,95511.34
2018-08-04T23:48:00.748Z,95513.96
2018-08-04T23:50:29.702Z,95507.38
2018-08-04T23:52:58.707Z,95504.66
2018-08-04T23:55:27.660Z,95495.81
2018-08-04T23:57:56.632Z,95497.67
